METAR Data
IDs: Format: Raw Decoded Include TAF

Data at: 0909 UTC 18 Jan 2019

PACD 180853Z AUTO 36024G30KT 4SM -SN BR BKN005 OVC013 01/00 A2970 RMK AO2 PK WND 36032/0837 SLP058 P0000 60001 T00060000 400061006 51002 TSNO
PACD 180753Z AUTO 36025G32KT 5SM -SN BR BKN006 OVC012 01/00 A2970 RMK AO2 PK WND 36032/0752 SLP057 P0001 T00060000 TSNO
PACD 180745Z AUTO 35022KT 3SM -SN BR BKN006 OVC011 01/00 A2969 RMK AO2 PK WND 35029/0734 P0001 T00060000 TSNO
PACD 180733Z AUTO 35023KT 2 1/2SM -SN BR BKN005 OVC011 01/00 A2970 RMK AO2 PK WND 35027/0724 P0001 T00060000 TSNO
PACD 180714Z AUTO 35021KT 2SM -SN BR BKN004 OVC008 01/00 A2970 RMK AO2 PK WND 35026/0705 P0000 T00060000 TSNO
PACD 180702Z AUTO 35019KT 1 3/4SM -SN BR OVC005 01/00 A2970 RMK AO2 PK WND 35026/0657 P0000 T00060000 TSNO
PACD 180653Z AUTO 35019KT 2SM -SN BR BKN005 OVC010 01/00 A2970 RMK AO2 PK WND 35029/0623 SLP058 P0000 T00060000 TSNO
PACD 180627Z AUTO 35021G29KT 2 1/2SM -SN BR OVC006 01/00 A2970 RMK AO2 PK WND 35029/0623 P0000 T00060000 TSNO
PACD 180610Z AUTO 35023KT 3SM -SN BR OVC007 01/00 A2970 RMK AO2 PK WND 35028/0602 P0000 T00060000 TSNO
PACD 180553Z AUTO 34021KT 3SM -SN BR SCT005 OVC012 01/00 A2969 RMK AO2 PK WND 35026/0531 SLP056 P0001 60001 I6000 T00060000 10006 21006 56005 TSNO
PACD 180550Z AUTO 34020KT 3SM -SN BR SCT005 OVC012 01/00 A2970 RMK AO2 PK WND 35026/0531 P0001 TSNO
PACD 180453Z AUTO 34020KT 2SM -SN BR FEW005 OVC012 00/00 A2970 RMK AO2 PK WND 35026/0425 SLP059 P0000 T00000000 TSNO
PACD 180444Z AUTO 34019KT 1 3/4SM -SN BR SCT008 OVC014 00/M01 A2970 RMK AO2 PK WND 35026/0425 P0000 T00001006 TSNO
PACD 180431Z AUTO 34021KT 2 1/2SM -SN BR SCT008 OVC016 00/M01 A2971 RMK AO2 PK WND 35026/0425 P0000 T00001006 TSNO
PACD 180418Z AUTO 34019KT 3SM -SN BR SCT007 OVC014 00/M01 A2971 RMK AO2 P0000 T00001006 TSNO
PACD 180408Z AUTO 34018KT 2 1/2SM -SN BR BKN006 OVC012 00/M01 A2971 RMK AO2 P0000 T00001006 TSNO
PACD 180353Z AUTO 34020KT 2SM -SN BR OVC011 00/M01 A2971 RMK AO2 UPE10SNB10 SLP061 P0000 I1000 T00001006 TSNO
PACD 180337Z AUTO 34020KT 1 1/4SM -SN BR SCT008 OVC012 M01/M01 A2971 RMK AO2 UPE10SNB10 P0000 I1000 T10061006 TSNO
PACD 180328Z AUTO 35020G25KT 1 3/4SM -SN BR SCT008 OVC016 M01/M01 A2971 RMK AO2 UPE10SNB10 P0000 I1000 T10061011 TSNO
PACD 180324Z AUTO 35021KT 2 1/2SM -SN BR BKN009 BKN013 OVC018 00/M01 A2971 RMK AO2 UPE10SNB10 P0000 I1000 T00001011 TSNO
PACD 180313Z AUTO 34020KT 4SM -SN BR SCT009 SCT015 OVC022 00/M01 A2971 RMK AO2 UPE10SNB10 P0000 I1000 T00001011 TSNO
PACD 180304Z AUTO 33018KT 5SM UP BR SCT008 BKN014 OVC024 00/M01 A2971 RMK AO2 P0000 I1000 T00001011 TSNO
PACD 180253Z AUTO 33019KT 4SM UP BR FEW006 SCT011 OVC023 M01/M01 A2972 RMK AO2 PK WND 34026/0229 UPE0154B50SNB0154E50 SLP064 P0000 60000 T10061011 53003
PACD 180243Z AUTO 34018KT 2 1/2SM -SN BR FEW005 BKN012 OVC023 M01/M01 A2972 RMK AO2 PK WND 34026/0229 VIS 1 1/2V4 UPE0154SNB0154 P0000 T10061011 TSNO
PACD 180231Z AUTO 34021KT 3SM -SN BR SCT005 BKN011 OVC021 M01/M01 A2971 RMK AO2 PK WND 34026/0229 UPE0154SNB0154 P0000 T10061011 TSNO
PACD 180227Z AUTO 34021KT 2SM -SN BR BKN005 BKN011 OVC016 M01/M01 A2971 RMK AO2 VIS 1 1/2V4 UPE0154SNB0154 P0000 T10061006 TSNO
PACD 180219Z AUTO 34020KT 1 1/4SM -SN BR SCT005 BKN011 OVC017 M01/M01 A2971 RMK AO2 UPE0154SNB0154 P0000 T10061011 TSNO
PACD 180207Z AUTO 34017KT 2SM -SN BR SCT006 BKN009 OVC023 M01/M01 A2971 RMK AO2 UPE0154SNB0154 P0000 T10061011 TSNO
PACD 180158Z AUTO 34021KT 1 3/4SM -SN BR FEW006 SCT011 OVC019 M01/M01 A2971 RMK AO2 VIS 1 1/4V5 UPE54SNB54 P0000 T10061011 TSNO
PACD 180153Z AUTO 34019KT 3SM UP BR FEW006 FEW011 OVC021 M01/M01 A2971 RMK AO2 PK WND 35026/0138 UPB51SNB00E51 SLP063 P0000 T10061011 TSNO
PACD 180148Z AUTO 34020KT 2SM -SN BR SCT008 OVC021 M01/M01 A2971 RMK AO2 PK WND 35026/0138 SNB00 P0000 TSNO
PACD 180135Z 35019G25KT 3/4SM -SN BR FEW006 BKN019 OVC028 M01/M01 A2971 RMK AO2 SNB00 P0000 T10061011
PACD 180129Z 34018KT 1 3/4SM -SN BR FEW014 BKN023 OVC032 M01/M01 A2971 RMK AO2 SNB00 P0000 T10061011
PACD 180117Z 34021KT 4SM -SN BR SCT015 BKN029 OVC033 M01/M01 A2971 RMK AO2 SNB00 P0000 T10061011
PACD 180104Z 34020KT 7SM -SN FEW006 SCT013 OVC037 M01/M01 A2971 RMK AO2 SNB00 P0000 T10061011
PACD 180053Z 33020KT 10SM FEW014 SCT029 OVC037 M01/M01 A2971 RMK AO2 PK WND 35026/2354 UPB04E19SNE04B05E06 SLP060 P0000 T10061011
PACD 180002Z 34019G26KT 6SM -SN BR FEW012 SCT017 OVC023 00/M02 A2970 RMK AO2 PK WND 35026/2354 P0000 T00001017
PACD 172353Z 35021KT 2 1/2SM -SN BR SCT012 BKN020 OVC029 00/M01 A2971 RMK AO2 PK WND 35026/2353 VIS 1 1/4V5 SLP060 P0001 60002 I6001 T00001011 10000 21006 58003
PACD 172319Z 35017KT 3SM -SN BR FEW009 BKN023 OVC030 M01/M01 A2971 RMK AO2 P0001 T10061011
PACD 172308Z 34019KT 1 3/4SM -SN BR FEW010 BKN019 OVC030 M01/M01 A2971 RMK AO2 P0000 T10061011
PACD 172303Z 34018KT 3SM -SN BR FEW010 BKN015 OVC023 00/M01 A2971 RMK AO2 P0000 T00001011
PACD 172253Z 35017G23KT 1 3/4SM -SN BR FEW008 BKN021 OVC026 00/M01 A2971 RMK AO2 UPB2154E17B43E51SNE2154B17E43B51 SLP062 P0000 T00001011
PACD 172246Z 35015KT 5SM UP BR FEW008 SCT016 OVC024 00/M01 A2971 RMK AO2 UPB2154E17B43SNE2154B17E43 P0000 T00001006
PACD 172239Z 34015KT 3SM -SN BR SCT010 BKN022 OVC027 00/M01 A2971 RMK AO2 UPB2154E17SNE2154B17 P0000 T00001011
PACD 172234Z 34016KT 1 1/2SM -SN BR FEW010 BKN022 OVC035 M01/M01 A2971 RMK AO2 UPB2154E17SNE2154B17 P0000 T10061011
PACD 172200Z 35017KT 4SM UP BR FEW008 BKN025 OVC036 00/M01 A2971 RMK AO2 UPB2154SNE2154 P0000 T00001006
PACD 172153Z 34017KT 2 1/2SM -SN BR FEW008 BKN025 OVC030 00/M01 A2971 RMK AO2 VIS 3/4V5 UPB24E29FZRAB29E34SNE24B34 SLP063 P0000 I1001 T00001006
PACD 172144Z 35018KT 1 1/2SM -SN BR SCT008 SCT013 OVC019 00/M01 A2972 RMK AO2 VIS 1/2V4 UPB24E29FZRAB29E34SNE24B34 P0000 I1001 T00001011
PACD 172140Z 34018G25KT 2 1/2SM -SN BR SCT008 BKN013 OVC022 00/M01 A2971 RMK AO2 VIS 1 3/4V4 UPB24E29FZRAB29E34SNE24B34 P0000 I1001 T00001011
PACD 172133Z 33020G25KT 2 1/2SM -FZRA BR BKN008 BKN013 OVC020 00/M01 A2972 RMK AO2 VIS 1 3/4V4 UPB24E29FZRAB29SNE24 P0000 I1001 T00001006
PACD 172129Z 33016KT 4SM -FZRA BR SCT008 BKN011 OVC020 00/M01 A2972 RMK AO2 UPB24E29FZRAB29SNE24 P0000 I1001 T00001006
PACD 172122Z 34016KT 3SM -SN BR SCT008 BKN012 OVC025 00/M01 A2972 RMK AO2 P0000 T00001011
PACD 172104Z 34019KT 2SM -SN BR FEW008 SCT018 OVC029 00/M01 A2972 RMK AO2 P0000 T00001011
PACD 172053Z 34017KT 2SM -SN BR FEW017 OVC036 M01/M01 A2971 RMK AO2 VIS 1V5 UPB1954E02B34E39SNB02E34B45 SLP063 P0000 60001 T10061011 53021
PACD 172022Z 34019KT 3SM -SN BR FEW010 BKN030 OVC043 M01/M01 A2970 RMK AO2 UPB1954E02SNB02 P0000 T10061011
PACD 172013Z 34018KT 2SM -SN BR FEW010 SCT015 OVC028 M01/M01 A2970 RMK AO2 UPB1954E02SNB02 P0000 T10061011
PACD 172007Z 33016KT 1 3/4SM -SN BR FEW013 SCT020 OVC034 M01/M01 A2970 RMK AO2 VIS 1 1/4V5 UPB1954E02SNB02 P0000 T10061011
PACD 171953Z 33018KT 7SM FEW010 FEW015 OVC035 M01/M01 A2969 RMK AO2 UPB1859E14SNB00E10B14E40 SLP055 P0000 T10061011
PACD 171939Z 34018KT 6SM -SN BR FEW010 SCT014 OVC033 M01/M01 A2969 RMK AO2 UPB1859E14SNB00E10B14 P0000 T10061011
PACD 171928Z 34020KT 2 1/2SM -SN BR SCT008 BKN018 OVC026 M01/M01 A2969 RMK AO2 UPB1859E14SNB00E10B14 P0000 T10061011
PACD 171918Z 33016KT 1 3/4SM -SN BR SCT008 BKN014 OVC029 00/M01 A2968 RMK AO2 UPB1859E14SNB00E10B14 P0000 T00001011
PACD 171916Z 33017KT 2SM -SN BR SCT008 SCT012 OVC029 00/M01 A2968 RMK AO2 UPB1859E14SNB00E10B14 P0000 T00001011
PACD 171853Z 34021KT 9SM SCT006 SCT011 OVC036 00/M01 A2967 RMK AO2 UPB35E41SNE35 SLP050 P0001 T00001011
PACD 171845Z 34018KT 9SM FEW006 OVC032 00/M01 A2967 RMK AO2 UPB35E41SNE35 P0001 T00001011
PACD 171813Z 33019KT 4SM -SN BR FEW006 SCT011 OVC021 00/M01 A2966 RMK AO2 P0001 T00001006
PACD 171800Z 33019KT 2SM -SN BR SCT006 OVC013 00/M01 A2965 RMK AO2 P0001 T00001011
PACD 171753Z 34017G23KT 1 1/2SM -SN BR BKN006 OVC011 00/M01 A2965 RMK AO2 SLP042 P0002 60008 T00001006 10000 20000 52007
PACD 171750Z 34016KT 1 1/2SM -SN BR BKN006 OVC011 00/M01 A2965 RMK AO2 P0002
PACD 171742Z 34017KT 2SM -SN BR BKN006 OVC011 00/M01 A2964 RMK AO2 VIS 1 1/4V3 P0002 T00001006
PACD 171714Z 34016KT 1 1/2SM -SN BR SCT006 OVC009 00/M01 A2964 RMK AO2 P0001 T00001006
PACD 171703Z 34014KT 1 1/4SM -SN BR SCT006 OVC011 00/M01 A2964 RMK AO2 P0000 T00001006
PACD 171653Z 34016KT 2 1/2SM -SN BR SCT006 OVC013 00/M01 A2963 RMK AO2 VIS 1 3/4V4 SLP035 P0003 T00001006
PACD 171650Z 34013KT 2 1/2SM -SN BR SCT006 OVC013 00/M01 A2963 RMK AO2 VIS 1 1/2V4 P0003
PACD 171553Z AUTO 34016KT 1 1/2SM -SN BR FEW007 OVC011 00/M01 A2961 RMK AO2 SLP028 P0001 T00001006 TSNO
PACD 171529Z AUTO 33014KT 1 3/4SM -SN BR SCT008 BKN011 OVC019 00/M01 A2960 RMK AO2 P0000 T00001006 TSNO
PACD 171500Z AUTO 34014KT 5SM -SN BR FEW011 SCT018 OVC029 00/M01 A2960 RMK AO2 P0000 T00001011 TSNO
PACD 171453Z AUTO 34013KT 4SM -SN BR FEW011 SCT018 OVC031 00/M01 A2960 RMK AO2 UPB35E38SNE35B38 SLP024 P0001 60002 T00001006 51020 TSNO
PACD 171434Z AUTO 35016KT 7SM -SN FEW014 OVC027 00/M01 A2959 RMK AO2 P0001 T00001011 TSNO
PACD 171423Z AUTO 35016KT 2SM -SN BR OVC018 00/M01 A2959 RMK AO2 P0001 T00001006 TSNO
PACD 171416Z AUTO 34019KT 3SM -SN BR FEW012 BKN019 OVC029 00/M01 A2959 RMK AO2 P0001 T00001006 TSNO
PACD 171408Z AUTO 34017KT 2 1/2SM -SN BR FEW014 BKN019 OVC027 00/M01 A2958 RMK AO2 VIS 1 3/4V5 P0000 T00001006 TSNO
PACD 171353Z AUTO 33019KT 6SM -SN BR FEW009 OVC026 00/M01 A2958 RMK AO2 UPB1256E01SNB01 SLP018 P0000 T00001011 TSNO
PACD 171347Z AUTO 34018KT 3SM -SN BR FEW009 BKN021 OVC029 00/M01 A2958 RMK AO2 UPB1256E01SNB01 P0000 TSNO
PACD 171343Z AUTO 34016KT 2SM -SN BR SCT013 BKN018 OVC029 00/M01 A2958 RMK AO2 VIS 1 1/2V5 UPB1256E01SNB01 P0000 T00001006 TSNO
PACD 171328Z AUTO 34016KT 3SM -SN BR FEW010 BKN017 OVC031 00/M01 A2958 RMK AO2 UPB1256E01SNB01 P0000 T00001006 TSNO
PACD 171314Z AUTO 34016KT 1 3/4SM -SN BR SCT008 OVC016 00/M01 A2957 RMK AO2 UPB1256E01SNB01 P0000 T00001011 TSNO
PACD 171309Z AUTO 34018G22KT 2 1/2SM -SN BR SCT008 BKN014 OVC027 00/M01 A2957 RMK AO2 VIS 1 3/4V4 UPB1256E01SNB01 P0000 T00001006 TSNO
PACD 171253Z AUTO 34014KT 7SM SCT009 SCT014 OVC027 00/M01 A2956 RMK AO2 UPB48E53SNE48 SLP012 P0001 T00001006 TSNO
PACD 171243Z AUTO 34013KT 3SM -SN BR FEW007 SCT012 OVC023 00/M01 A2956 RMK AO2 P0001 T00001006 TSNO
PACD 171236Z AUTO 34014G20KT 1 3/4SM -SN BR SCT007 BKN012 OVC019 00/M01 A2955 RMK AO2 P0001 T00001006 TSNO
PACD 171225Z AUTO 34013KT 3SM -SN BR SCT007 BKN012 OVC027 00/M01 A2955 RMK AO2 P0000 T00001006 TSNO
PACD 171218Z AUTO 34013KT 2 1/2SM -SN BR SCT007 SCT014 OVC025 00/M01 A2955 RMK AO2 P0000 T00001006 TSNO
PACD 171205Z AUTO 34013KT 6SM -SN BR FEW009 OVC025 00/M01 A2954 RMK AO2 P0000 T00001011 TSNO
PACD 171153Z AUTO 34015KT 2SM -SN BR FEW009 BKN025 OVC036 00/M01 A2954 RMK AO2 VIS 1 1/4V4 SLP003 P0000 60014 70022 T00001006 10006 20000 51013 TSNO
PACD 171150Z AUTO 34017KT 2 1/2SM -SN BR FEW009 BKN025 OVC034 00/M01 A2954 RMK AO2 VIS 1 1/4V4 P0000 TSNO
PACD 171146Z AUTO 34016KT 3SM -SN BR FEW010 BKN025 OVC034 00/M01 A2954 RMK AO2 P0000 T00001011 TSNO
PACD 171129Z AUTO 34015KT 4SM -SN BR FEW005 SCT010 OVC032 00/M01 A2953 RMK AO2 P0000 T00001006 TSNO
PACD 171122Z AUTO 33013KT 4SM -SN BR FEW005 BKN013 OVC034 00/M01 A2952 RMK AO2 P0000 T00001006 TSNO
PACD 171115Z AUTO 34014KT 4SM -SN BR SCT005 BKN009 OVC028 00/M01 A2952 RMK AO2 P0000 T00001006 TSNO
PACD 171105Z AUTO 33014KT 2 1/2SM -SN BR BKN005 BKN014 OVC025 00/M01 A2952 RMK AO2 VIS 1 1/2V4 P0000 T00001006 TSNO
PACD 171053Z AUTO 33015KT 4SM -SN BR SCT005 BKN009 OVC029 00/M01 A2952 RMK AO2 SLP997 P0001 T00001006 TSNO
PACD 171042Z AUTO 33014KT 2 1/2SM -SN BR SCT006 BKN009 OVC014 00/M01 A2951 RMK AO2 P0000 T00001006 TSNO
PACD 171035Z AUTO 33018KT 2 1/2SM -SN BR SCT006 OVC012 00/M01 A2951 RMK AO2 P0000 T00001006 TSNO
PACD 171025Z AUTO 33014KT 1 3/4SM -SN BR BKN006 OVC012 00/M01 A2951 RMK AO2 P0000 T00001006 TSNO
PACD 171019Z AUTO 33018KT 2SM -SN BR SCT005 BKN011 OVC014 00/M01 A2951 RMK AO2 P0000 T00001006 TSNO
PACD 171006Z AUTO 33017KT 2SM -SN BR BKN005 BKN013 OVC018 00/M01 A2950 RMK AO2 P0000 T00001006 TSNO
PACD 170955Z AUTO 33016KT 2 1/2SM -SN BR SCT005 OVC020 00/M01 A2950 RMK AO2 P0000 T00001006 TSNO
PACD 170948Z AUTO 34016KT 3SM -SN BR SCT005 BKN012 OVC018 00/M01 A2950 RMK AO2 SLP990 P0003 T00001006 TSNO
PACD 170947Z AUTO 34017KT 3SM -SN BR SCT005 BKN012 OVC018 00/M01 A2950 RMK AO2 P0003 TSNO
PACD 170936Z AUTO 33017G24KT 2SM -SN BR BKN005 OVC014 00/M01 A2950 RMK AO2 P0002 T00001006 TSNO
PACD 170926Z AUTO 33016KT 1 1/2SM -SN BR BKN004 OVC012 00/M01 A2949 RMK AO2 P0002 T00001006 TSNO
PACD 170900Z AUTO 33013KT 1 1/2SM -SN BR BKN005 OVC014 00/00 A2948 RMK AO2 P0001 T00000000 TSNO
PACD 170853Z AUTO 33016G22KT 1 3/4SM -SN BR BKN004 OVC012 00/00 A2948 RMK AO2 SLP983 P0003 60010 T00000000 400280000 51022 TSNO
PACD 170844Z AUTO 33015KT 1 3/4SM -SN BR BKN004 OVC012 00/00 A2947 RMK AO2 P0003 T00000000 TSNO
PACD 170822Z AUTO 33016KT 1 1/4SM -SN BR SCT004 OVC011 00/00 A2947 RMK AO2 P0002 T00000000 TSNO
PACD 170753Z AUTO 33015KT 1SM -SN BR SCT004 OVC009 01/00 A2946 RMK AO2 SLP976 P0005 T00060000 TSNO
PACD 170742Z AUTO 33015KT 1SM -SN BR SCT004 OVC009 01/00 A2946 RMK AO2 P0004 T00060000 TSNO
PACD 170717Z AUTO 33014KT 1 1/4SM -SN BR BKN004 OVC009 01/00 A2944 RMK AO2 P0002 T00060000 TSNO
PACD 170708Z AUTO 33015KT 1 1/4SM -SN BR SCT004 OVC009 01/00 A2944 RMK AO2 P0002 T00060000 TSNO
PACD 170653Z AUTO 33014KT 1 1/2SM -SN BR BKN004 OVC010 01/00 A2943 RMK AO2 SLP968 P0002 T00060000 TSNO
PACD 170641Z AUTO 33017G22KT 1 1/2SM -SN BR BKN004 OVC009 01/00 A2943 RMK AO2 P0002 T00060000 TSNO
PACD 170630Z AUTO 33015KT 2SM -SN BR BKN004 OVC011 01/00 A2943 RMK AO2 P0001 T00060000 TSNO
PACD 170622Z AUTO 33017KT 1 3/4SM -SN BR BKN006 OVC013 01/00 A2942 RMK AO2 P0001 T00060000 TSNO
PACD 170610Z AUTO 33016KT 2 1/2SM -SN BR SCT006 OVC017 01/00 A2941 RMK AO2 P0001 T00060000 TSNO
PACD 170553Z AUTO 33016KT 3SM -SN BR BKN006 OVC023 01/00 A2941 RMK AO2 SLP961 P0002 60008 I6000 T00060000 10022 20006 53008 TSNO
PACD 170524Z AUTO 33014KT 3SM -SN BR BKN006 OVC010 01/01 A2940 RMK AO2 P0001 T00060006 TSNO
PACD 170513Z AUTO 33015KT 3SM -SN BR BKN004 OVC010 01/01 A2940 RMK AO2 P0001 T00060006 TSNO
PACD 170453Z AUTO 33011KT 2 1/2SM -SN BR FEW004 OVC012 01/00 A2940 RMK AO2 RAB0358E21UPB21E22SNE0358B22 SLP955 P0001 T00060000 TSNO
PACD 170431Z AUTO 33011KT 5SM -SN BR SCT006 OVC011 01/01 A2939 RMK AO2 RAB0358E21UPB21E22SNE0358B22 P0000 T00060006 TSNO
PACD 170353Z AUTO 33013KT 7SM -SN BKN005 OVC020 01/01 A2939 RMK AO2 RAE22SNB22 SLP953 P0002 T00110006 TSNO
PACD 170351Z AUTO 33013KT 6SM -SN BR BKN006 OVC011 01/01 A2939 RMK AO2 RAE22SNB22 P0001 TSNO
PACD 170333Z AUTO 34013KT 7SM -SN SCT006 OVC011 01/01 A2939 RMK AO2 RAE22SNB22 P0001 T00110006 TSNO
PACD 170305Z AUTO 34013KT 7SM -RA BKN007 OVC011 02/01 A2938 RMK AO2 P0001 T00170011 TSNO
PACD 170253Z AUTO 34012KT 8SM -RA SCT007 BKN014 OVC021 02/01 A2938 RMK AO2 SLP951 P0000 60003 I3000 T00170011 55001 TSNO
PACD 170245Z AUTO 34013KT 6SM -RA BR SCT007 BKN012 OVC032 02/01 A2938 RMK AO2 P0000 T00170011 TSNO
PACD 170208Z AUTO 34015KT 7SM -RA SCT008 BKN042 OVC050 02/01 A2938 RMK AO2 P0000 T00170011 TSNO
PACD 170153Z AUTO 34015G23KT 8SM -RA BKN007 OVC043 02/01 A2938 RMK AO2 SLP951 P0002 T00170011 TSNO
PACD 170134Z 33013KT 9SM -RA BKN008 OVC029 02/01 A2938 RMK AO2 P0001 T00170011
PACD 170126Z 33014KT 8SM -RA SCT008 BKN014 OVC025 02/01 A2938 RMK AO2 P0001 T00170011
PACD 170110Z 33014KT 8SM -RA FEW007 SCT014 OVC023 02/01 A2938 RMK AO2 P0001 T00220011
PACD 170053Z 34014KT 10SM -RA FEW014 BKN025 OVC032 02/01 A2938 RMK AO2 RAB00E38B42 SLP950 P0001 I1000 T00220011
PACD 170038Z 33010KT 10SM SCT010 BKN020 OVC046 02/02 A2938 RMK AO2 RAB00E38 P0001 I1000 T00220017
PACD 162353Z 34011KT 10SM FEW008 OVC014 02/01 A2939 RMK AO2 RAB10E51 SLP952 P0000 60000 T00220011 10028 20017 56009
PACD 162338Z 35013KT 6SM -RA BR FEW008 OVC015 02/01 A2939 RMK AO2 RAB10 P0000 T00170011
PACD 162335Z 34015KT 6SM -RA BR BKN010 OVC018 02/01 A2939 RMK AO2 RAB10 P0000 T00170011
PACD 162311Z 34014KT 8SM -RA FEW009 OVC015 02/01 A2939 RMK AO2 RAB10 P0000 T00220011
PACD 162253Z 33014KT 9SM FEW012 BKN017 OVC025 02/01 A2939 RMK AO2 RAE19 SLP954 P0000 T00220011
PACD 162210Z 34012KT 8SM -RA FEW009 BKN019 OVC025 02/01 A2940 RMK AO2 P0000 T00220011
PACD 162153Z 34013KT 6SM -RA BR BKN014 OVC020 02/01 A2940 RMK AO2 UPB50E52RAB52 SLP956 P0000 T00220006